createdAt,value
2022-10-06T00:01:43.266Z,13.67
2022-10-06T00:09:18.484Z,13.69
2022-10-06T00:16:52.257Z,13.68
2022-10-06T00:24:27.387Z,13.70
2022-10-06T00:32:01.192Z,13.84
2022-10-06T00:39:36.476Z,13.89
2022-10-06T00:47:10.252Z,13.97
2022-10-06T00:54:45.509Z,14.20
2022-10-06T01:02:23.568Z,14.34
2022-10-06T01:09:59.014Z,14.53
2022-10-06T01:17:38.170Z,14.57
2022-10-06T01:25:15.958Z,14.65
2022-10-06T01:32:49.742Z,14.81
2022-10-06T01:40:25.655Z,14.82
2022-10-06T01:47:59.408Z,14.90
2022-10-06T01:55:35.304Z,14.88
2022-10-06T02:03:09.008Z,14.84
2022-10-06T02:10:44.194Z,14.81
2022-10-06T02:18:17.858Z,14.72
2022-10-06T02:25:59.550Z,14.63
2022-10-06T02:33:34.103Z,14.59
2022-10-06T02:41:10.786Z,14.53
2022-10-06T02:48:44.567Z,14.45
2022-10-06T02:56:22.040Z,14.41
2022-10-06T03:03:55.844Z,14.40
2022-10-06T03:11:32.481Z,14.42
2022-10-06T03:19:07.544Z,14.47
2022-10-06T03:26:43.265Z,14.56
2022-10-06T03:34:17.001Z,14.74
2022-10-06T03:41:52.155Z,14.95
2022-10-06T03:49:25.915Z,15.09
2022-10-06T03:57:01.151Z,15.10
2022-10-06T04:04:34.841Z,15.16
2022-10-06T04:12:10.311Z,15.16
2022-10-06T04:19:44.137Z,15.15
2022-10-06T04:27:35.902Z,15.15
2022-10-06T04:35:10.474Z,15.15
2022-10-06T04:42:45.755Z,15.14
2022-10-06T04:50:19.629Z,15.16
2022-10-06T04:57:56.173Z,15.12
2022-10-06T05:05:30.034Z,15.10
2022-10-06T05:13:06.055Z,15.08
2022-10-06T05:20:39.915Z,15.05
2022-10-06T05:28:15.145Z,15.00
2022-10-06T05:35:52.713Z,14.98
2022-10-06T05:43:27.881Z,14.96
2022-10-06T05:51:03.625Z,14.90
2022-10-06T05:58:40.592Z,14.81
2022-10-06T06:06:18.164Z,14.69
2022-10-06T06:13:53.474Z,14.62
2022-10-06T06:21:28.196Z,14.57
2022-10-06T06:29:04.108Z,14.58
2022-10-06T06:36:41.092Z,14.60
2022-10-06T06:44:16.447Z,14.65
2022-10-06T06:51:50.957Z,14.75
2022-10-06T06:59:26.412Z,14.73
2022-10-06T07:07:00.159Z,14.74
2022-10-06T07:14:35.388Z,14.75
2022-10-06T07:22:33.582Z,14.84
2022-10-06T07:30:11.616Z,14.93
2022-10-06T07:37:45.312Z,15.20
2022-10-06T07:45:53.643Z,15.29
2022-10-06T07:53:28.725Z,15.51
2022-10-06T08:01:07.374Z,15.25
2022-10-06T08:08:42.113Z,15.43
2022-10-06T08:16:19.406Z,15.59
2022-10-06T08:23:54.686Z,15.92
2022-10-06T08:31:30.807Z,16.01
2022-10-06T08:39:07.352Z,16.05
2022-10-06T08:46:50.183Z,16.08
2022-10-06T08:54:30.303Z,16.00
2022-10-06T09:02:25.915Z,16.05
2022-10-06T09:10:18.579Z,16.11
2022-10-06T09:18:01.027Z,16.37
2022-10-06T09:25:35.157Z,16.92
2022-10-06T09:33:19.695Z,17.02
2022-10-06T09:40:55.639Z,16.41
2022-10-06T09:48:30.785Z,16.38
2022-10-06T09:56:06.099Z,16.65
2022-10-06T10:04:08.371Z,16.78
2022-10-06T10:12:01.665Z,16.92
2022-10-06T10:19:42.910Z,16.91
2022-10-06T10:27:23.175Z,16.86
2022-10-06T10:35:06.035Z,16.71
2022-10-06T10:42:48.119Z,16.83
2022-10-06T10:50:28.797Z,16.75
2022-10-06T10:58:19.140Z,16.75
2022-10-06T11:06:20.374Z,16.61
2022-10-06T11:13:59.675Z,16.66
2022-10-06T11:21:40.780Z,16.80
2022-10-06T11:29:25.460Z,16.86
2022-10-06T11:37:09.364Z,16.93
2022-10-06T11:44:46.678Z,17.05
2022-10-06T11:52:45.513Z,17.09
2022-10-06T12:00:42.705Z,17.06
2022-10-06T12:08:17.941Z,17.07
2022-10-06T12:24:25.553Z,16.92
2022-10-06T12:32:07.130Z,17.06
2022-10-06T12:39:42.350Z,17.16
2022-10-06T12:47:21.584Z,17.24
2022-10-06T12:55:17.306Z,17.27
2022-10-06T13:02:53.788Z,17.32
2022-10-06T13:10:30.557Z,17.26
2022-10-06T13:18:12.905Z,17.21
2022-10-06T13:25:50.484Z,17.18
2022-10-06T13:33:26.646Z,17.24
2022-10-06T13:41:16.998Z,17.32
2022-10-06T13:48:54.386Z,17.46
2022-10-06T13:56:37.875Z,17.41
2022-10-06T14:04:18.328Z,17.34
2022-10-06T14:11:55.003Z,17.32
2022-10-06T14:19:35.408Z,17.29
2022-10-06T14:27:10.628Z,17.21
2022-10-06T14:34:44.925Z,17.19
2022-10-06T14:42:22.510Z,17.14
2022-10-06T14:49:56.282Z,17.07
2022-10-06T14:57:31.288Z,17.00
2022-10-06T15:05:05.056Z,16.93
2022-10-06T15:12:40.310Z,16.89
2022-10-06T15:20:14.311Z,16.81
2022-10-06T15:28:07.026Z,16.77
2022-10-06T15:35:41.595Z,16.66
2022-10-06T15:43:36.860Z,16.56
2022-10-06T15:51:11.354Z,16.46
2022-10-06T15:58:48.769Z,16.33
2022-10-06T16:06:40.207Z,16.19
2022-10-06T16:14:16.339Z,16.03
2022-10-06T16:21:53.457Z,15.90
2022-10-06T16:29:32.836Z,15.62
2022-10-06T16:37:06.869Z,15.40
2022-10-06T16:44:42.371Z,15.20
2022-10-06T16:52:16.148Z,14.94
2022-10-06T16:59:51.283Z,14.69
2022-10-06T17:07:26.460Z,14.46
2022-10-06T17:15:01.612Z,14.24
2022-10-06T17:22:35.274Z,14.04
2022-10-06T17:30:11.933Z,13.86
2022-10-06T17:37:45.810Z,13.66
2022-10-06T17:45:21.536Z,13.44
2022-10-06T17:52:55.731Z,13.26
2022-10-06T18:00:31.896Z,13.09
2022-10-06T18:08:08.783Z,12.90
2022-10-06T18:15:44.434Z,12.71
2022-10-06T18:23:18.403Z,12.61
2022-10-06T18:30:53.579Z,12.49
2022-10-06T18:38:27.820Z,12.36
2022-10-06T18:46:22.008Z,12.13
2022-10-06T18:53:57.175Z,11.99
2022-10-06T19:01:33.325Z,11.91
2022-10-06T19:09:07.660Z,11.79
2022-10-06T19:16:43.305Z,11.64
2022-10-06T19:24:19.056Z,11.47
2022-10-06T19:31:56.407Z,11.36
2022-10-06T19:39:31.621Z,11.28
2022-10-06T19:47:07.910Z,11.16
2022-10-06T19:54:42.045Z,11.03
2022-10-06T20:02:17.289Z,10.89
2022-10-06T20:09:51.048Z,10.84
2022-10-06T20:17:26.353Z,10.72
2022-10-06T20:25:01.929Z,10.59
2022-10-06T20:32:37.150Z,10.51
2022-10-06T20:40:28.898Z,10.41
2022-10-06T20:48:04.174Z,10.29
2022-10-06T20:55:37.984Z,10.15
2022-10-06T21:03:14.114Z,10.10
2022-10-06T21:10:56.696Z,9.97
2022-10-06T21:18:32.684Z,9.92
2022-10-06T21:26:07.857Z,9.81
2022-10-06T21:33:44.610Z,9.74
2022-10-06T21:41:33.060Z,9.65
2022-10-06T21:49:11.231Z,9.53
2022-10-06T21:56:45.298Z,9.45
2022-10-06T22:04:20.450Z,9.34
2022-10-06T22:11:54.385Z,9.27
2022-10-06T22:19:29.579Z,9.21
2022-10-06T22:27:03.414Z,9.10
2022-10-06T22:34:38.664Z,9.00
2022-10-06T22:42:12.445Z,8.96
2022-10-06T22:49:47.682Z,8.89
2022-10-06T22:57:21.429Z,8.78
2022-10-06T23:04:56.698Z,8.72
2022-10-06T23:12:30.674Z,8.60
2022-10-06T23:20:06.590Z,8.54
2022-10-06T23:27:40.691Z,8.48
2022-10-06T23:35:16.037Z,8.39
2022-10-06T23:42:49.784Z,8.35
2022-10-06T23:50:25.000Z,8.27
2022-10-06T23:57:58.770Z,8.21
